الصفحة الرئيسية
METAR-TAF:

METAR-TAF

مطار :

Belgaum, الهند

دائرة عرض: 15-51-33N, خط طول: 74-37-03E, ارتفاع: 758 متر

مراقبة الطقس الحالي

تاريخ ووقت الإصدار 7ساعات و 21 دقيقة قبل الساعة 14:00UTC
ريح 8 عقدة من الغرب/الشمال الغربي
درجة الحرارة 22°درجة مئوية
الرطوبة 94%
ضغط 1009 hPa
الرؤية: 6000 متر
غيوم متفرقة على ارتفاع 700 قدم
غيوم متفرقة على ارتفاع 1500 قدم
غيوم مفككة على ارتفاع 8000 قدم

METAR: VOBM 021400Z 29008KT 6000 SCT007 SCT015 BKN080 22/21 Q1009

زمن: 02:51 (21:21 UTC)

توقعات

تاريخ ووقت الإصدار 4ساعات و 21 دقيقة قبل الساعة 17:00UTC
التوقعات صالحة من02 الساعة 18 UTC إلى 03 الساعة 03 UTC
ريح 10 عقدة من الغرب
الرؤية: 6000 متر
غيوم متفرقة على ارتفاع 1200 قدم
غيوم متفرقة على ارتفاع 8000 قدم
مؤقت
من 03 الساعة 00 UTC إلى 03 الساعة 03 UTC
الرؤية: 5000 متر
غيوم متفرقة على ارتفاع 800 قدم
غيوم متفرقة على ارتفاع 1200 قدم
غيوم مفككة على ارتفاع 8000 قدم
رذاذ, غشاء

TAF: VOBM 021700Z 0218/0303 27010KT 6000 SCT012 SCT080 TEMPO 0300/0303 5000 DZ BR SCT008 SCT012 BKN080

أرصاد الطقس والتوقعات من أكثر من 4000 مطار (تقارير الطقس للمطار METAR والتنبؤ بالطقس بالمطارTAF).

المحطات المتاحة هي النقط الصفراء والحمراء على الخريطة.

حرك المؤشر فوق النقطة لمعرفة اسم المحطة.

ثم انقر لمعرفة أرصاد وتوقعات الطقس.

لتغيير الخارطة: اضغط على الأزرار الخضراء مع رمز الصليب الأسود للتكبير. على الزر الأخضر مع شرطة للتصغير، أو على الأسهم الخضراء للخرائط المجاورة.


METAR-TAF: